Time;durP1;ratioP1;P1;durP2;ratioP2;P2;SDS_P1;SDS_P2;PMS_P1;PMS_P2;Temp;Humidity;BMP_temperature;BMP_pressure;BME280_temperature;BME280_humidity;BME280_pressure;Samples;Min_cycle;Max_cycle;Signal;HPM_P1;HPM_P2
2022/04/01 00:05:44;;;;;;;11.75;10.07;;;;;;;6.72;73.35;97947.75;1087971;54;20355;-79
2022/04/01 00:06:46;;;;;;;13.57;10.35;;;;;;;6.59;74.12;97950.13;1088261;54;20058;-78
2022/04/01 00:07:50;;;;;;;12.68;10.07;;;;;;;6.54;74.40;97948.00;1088376;54;20030;-79
2022/04/01 00:08:52;;;;;;;13.60;10.73;;;;;;;6.42;74.65;97952.00;1088353;54;20061;-80
2022/04/01 00:09:56;;;;;;;12.85;10.45;;;;;;;6.42;74.54;97948.53;1088325;54;20034;-79
2022/04/01 00:10:58;;;;;;;12.93;11.05;;;;;;;6.29;75.18;97954.34;1088358;54;20027;-78
2022/04/01 00:12:02;;;;;;;13.07;10.43;;;;;;;6.26;75.23;97963.47;1088366;54;20091;-79
2022/04/01 00:13:07;;;;;;;12.10;10.43;;;;;;;6.20;76.11;97958.84;1088323;54;20058;-80
2022/04/01 00:14:08;;;;;;;15.38;11.50;;;;;;;6.08;76.19;97959.19;1088367;54;20034;-78
2022/04/01 00:15:14;;;;;;;13.35;10.32;;;;;;;6.08;75.92;97963.66;1088250;54;20030;-79
2022/04/01 00:16:16;;;;;;;14.00;10.82;;;;;;;6.08;75.97;97955.72;1088284;54;20030;-80
2022/04/01 00:17:20;;;;;;;13.25;10.65;;;;;;;6.14;75.88;97962.19;1088301;54;20062;-78
2022/04/01 00:18:22;;;;;;;13.05;10.25;;;;;;;6.21;75.73;97965.81;1096596;39;20896;-79
2022/04/01 00:19:26;;;;;;;13.23;10.23;;;;;;;6.20;75.95;97964.16;1088354;54;20022;-79
2022/04/01 00:20:28;;;;;;;13.93;10.57;;;;;;;6.18;76.29;97958.19;1088230;54;20090;-78
2022/04/01 00:21:36;;;;;;;13.35;10.18;;;;;;;6.15;76.67;97966.47;1088336;54;20038;-78
2022/04/01 00:22:37;;;;;;;13.15;10.65;;;;;;;6.15;76.69;97956.69;1088338;54;20027;-78
2022/04/01 00:23:42;;;;;;;13.98;10.60;;;;;;;6.21;76.53;97963.16;1088337;54;20693;-78
2022/04/01 00:24:43;;;;;;;12.55;10.10;;;;;;;6.22;76.84;97962.16;1088290;54;20023;-78
2022/04/01 00:25:47;;;;;;;12.23;9.95;;;;;;;6.26;76.83;97962.66;1088250;54;20037;-77
2022/04/01 00:26:49;;;;;;;15.13;11.65;;;;;;;6.28;76.50;97971.28;1090263;46;20042;-77
2022/04/01 00:27:54;;;;;;;14.63;11.85;;;;;;;6.23;76.45;97969.94;1088313;54;20058;-77
2022/04/01 00:28:55;;;;;;;15.25;12.00;;;;;;;6.13;76.74;97961.34;1088328;54;20022;-78
2022/04/01 00:30:00;;;;;;;15.32;12.18;;;;;;;6.08;76.87;97967.13;1090298;46;20655;-77
2022/04/01 00:31:01;;;;;;;15.65;12.73;;;;;;;6.08;76.72;97959.19;1090482;46;20038;-77
2022/04/01 00:32:06;;;;;;;14.88;11.68;;;;;;;6.06;76.84;97963.81;1088319;54;20037;-77
2022/04/01 00:33:08;;;;;;;13.18;10.63;;;;;;;6.03;77.17;97963.31;1088339;54;20026;-77
2022/04/01 00:34:18;;;;;;;13.23;10.32;;;;;;;6.03;77.18;97963.31;1088350;54;20023;-77
2022/04/01 00:35:20;;;;;;;13.20;10.52;;;;;;;5.95;77.32;97964.16;1088262;54;20025;-78
2022/04/01 00:36:24;;;;;;;13.55;10.30;;;;;;;5.94;77.59;97965.13;1089887;46;20090;-78
2022/04/01 00:37:29;;;;;;;13.55;10.52;;;;;;;5.92;77.61;97959.97;1088295;54;20086;-77
2022/04/01 00:38:33;;;;;;;10.75;9.18;;;;;;;5.91;77.47;97965.47;1088626;46;20018;-77
2022/04/01 00:39:35;;;;;;;10.93;8.98;;;;;;;5.93;77.53;97963.47;1088354;54;20042;-78
2022/04/01 00:40:39;;;;;;;13.52;10.45;;;;;;;5.91;77.56;97970.75;1088257;54;20018;-77
2022/04/01 00:41:44;;;;;;;14.50;12.15;;;;;;;5.88;77.95;97965.78;1088320;54;20046;-78
2022/04/01 00:42:48;;;;;;;17.35;13.73;;;;;;;5.87;77.99;97969.41;1088364;54;20057;-76
2022/04/01 00:44:11;;;;;;;17.50;12.88;;;;;;;5.83;78.30;97970.75;1088318;54;20030;-78
2022/04/01 00:45:16;;;;;;;13.48;10.45;;;;;;;5.80;77.72;97963.13;1088194;54;20749;-78
2022/04/01 00:46:18;;;;;;;12.75;10.13;;;;;;;5.78;77.46;97968.59;1088255;54;20062;-78
2022/04/01 00:47:22;;;;;;;13.40;9.65;;;;;;;5.82;77.34;97971.75;1088262;54;20035;-77
2022/04/01 00:48:25;;;;;;;10.55;8.82;;;;;;;5.82;77.17;97961.16;1088143;54;20661;-78
2022/04/01 00:49:31;;;;;;;10.60;8.57;;;;;;;5.83;77.44;97968.13;1088114;54;20015;-77
2022/04/01 00:50:33;;;;;;;10.90;8.95;;;;;;;5.83;77.21;97971.56;1088251;54;20034;-78
2022/04/01 00:51:38;;;;;;;10.85;8.55;;;;;;;5.82;76.89;97971.75;1089206;39;20516;-78
2022/04/01 00:52:45;;;;;;;10.88;8.43;;;;;;;5.75;76.34;97967.13;1088293;54;20038;-77
2022/04/01 00:53:47;;;;;;;10.57;8.50;;;;;;;5.69;76.90;97969.59;1088871;46;20018;-78
2022/04/01 00:54:52;;;;;;;11.93;8.15;;;;;;;5.75;77.18;97972.44;1088271;54;20033;-78
2022/04/01 00:55:54;;;;;;;9.98;8.32;;;;;;;5.72;77.24;97971.91;1088254;54;20038;-77
2022/04/01 00:56:59;;;;;;;9.82;8.02;;;;;;;5.75;77.19;97972.44;1088217;54;20098;-76
2022/04/01 00:58:01;;;;;;;10.98;7.90;;;;;;;5.70;77.26;97974.72;1090776;39;20679;-77
2022/04/01 00:59:06;;;;;;;11.40;8.93;;;;;;;5.68;77.20;97971.41;1088306;54;20103;-78
2022/04/01 01:00:09;;;;;;;10.40;8.45;;;;;;;5.65;77.09;97966.44;1088232;54;20046;-78
2022/04/01 01:01:13;;;;;;;9.98;7.82;;;;;;;5.71;77.20;97965.78;1088268;54;20026;-79
2022/04/01 01:02:15;;;;;;;9.90;7.72;;;;;;;5.71;77.07;97972.91;1089303;46;20026;-79
2022/04/01 01:03:20;;;;;;;9.32;7.97;;;;;;;5.61;76.82;97970.41;1090493;46;20110;-77
2022/04/01 01:04:22;;;;;;;10.73;8.45;;;;;;;5.54;77.35;97969.41;1090759;46;20034;-78
2022/04/01 01:05:27;;;;;;;10.30;7.55;;;;;;;5.61;77.17;97970.41;1087695;54;20038;-78
2022/04/01 01:06:30;;;;;;;8.38;7.20;;;;;;;5.66;76.97;97967.25;1088203;54;20026;-78
2022/04/01 01:07:36;;;;;;;9.95;7.40;;;;;;;5.68;77.16;97962.63;1088194;54;20030;-78
2022/04/01 01:08:41;;;;;;;9.43;7.60;;;;;;;5.68;76.90;97971.41;1088207;54;20031;-77
2022/04/01 01:09:46;;;;;;;9.07;7.07;;;;;;;5.63;77.09;97966.59;1090811;46;20038;-78
2022/04/01 01:10:47;;;;;;;9.85;8.25;;;;;;;5.57;77.27;97969.09;1088152;54;20041;-78
2022/04/01 01:11:52;;;;;;;9.65;7.88;;;;;;;5.59;77.35;97962.63;1088270;54;20022;-78
2022/04/01 01:12:57;;;;;;;9.35;7.28;;;;;;;5.60;77.23;97966.94;1088227;54;20038;-77
2022/04/01 01:13:59;;;;;;;9.45;8.05;;;;;;;5.53;77.61;97962.44;1088242;54;20041;-77
2022/04/01 01:15:10;;;;;;;10.18;8.45;;;;;;;5.40;77.31;97974.34;1088165;54;20034;-78
2022/04/01 01:16:12;;;;;;;11.00;7.95;;;;;;;5.33;77.62;97970.69;1088237;54;20045;-77
2022/04/01 01:17:16;;;;;;;10.40;8.43;;;;;;;5.29;77.95;97966.72;1089154;46;20030;-78
2022/04/01 01:18:17;;;;;;;11.75;9.02;;;;;;;5.24;78.21;97961.88;1088699;46;20670;-77
2022/04/01 01:19:22;;;;;;;9.50;7.72;;;;;;;5.26;78.14;97964.38;1088195;54;20030;-76
2022/04/01 01:20:24;;;;;;;9.55;7.43;;;;;;;5.25;78.44;97960.88;1088178;54;20034;-78
2022/04/01 01:21:28;;;;;;;10.07;8.32;;;;;;;5.22;78.50;97963.03;1088225;54;20037;-78
2022/04/01 01:22:30;;;;;;;9.13;7.60;;;;;;;5.29;78.15;97958.78;1088174;54;20041;-78
2022/04/01 01:23:37;;;;;;;10.73;8.80;;;;;;;5.23;78.34;97962.06;1088715;46;20034;-79
2022/04/01 01:24:45;;;;;;;10.65;8.55;;;;;;;5.15;78.83;97963.69;1088208;54;20041;-78
2022/04/01 01:25:46;;;;;;;12.98;9.27;;;;;;;5.20;78.84;97962.38;1088899;46;20034;-77
2022/04/01 01:26:53;;;;;;;10.15;8.50;;;;;;;5.12;79.12;97958.72;1090789;39;20852;-78
2022/04/01 01:27:55;;;;;;;10.20;8.27;;;;;;;5.18;79.07;97962.53;1088138;54;20042;-78
2022/04/01 01:29:00;;;;;;;10.48;8.82;;;;;;;5.13;79.45;97968.31;1090323;46;20090;-77
2022/04/01 01:30:03;;;;;;;10.70;8.27;;;;;;;5.20;79.47;97957.06;1088185;54;20034;-78
2022/04/01 01:31:07;;;;;;;12.00;8.75;;;;;;;5.14;79.70;97962.03;1088166;54;20057;-76
2022/04/01 01:32:10;;;;;;;12.30;8.93;;;;;;;5.12;80.02;97961.34;1088172;54;20062;-78
2022/04/01 01:33:14;;;;;;;10.23;8.48;;;;;;;5.08;79.97;97957.38;1088148;54;20115;-78
2022/04/01 01:34:17;;;;;;;12.32;8.85;;;;;;;5.12;80.00;97953.41;1088369;47;20039;-77
2022/04/01 01:35:22;;;;;;;10.77;8.90;;;;;;;5.15;79.95;97961.03;1088056;54;22056;-77
2022/04/01 01:36:25;;;;;;;12.52;9.10;;;;;;;5.13;80.17;97952.41;1088201;54;20065;-77
2022/04/01 01:37:29;;;;;;;11.52;9.52;;;;;;;5.08;80.31;97953.91;1089322;46;20041;-77
2022/04/01 01:38:32;;;;;;;10.90;8.57;;;;;;;5.05;80.18;97955.06;1088096;54;20098;-79
2022/04/01 01:39:36;;;;;;;12.15;8.88;;;;;;;5.00;80.43;97962.66;1088136;54;20031;-78
2022/04/01 01:40:40;;;;;;;11.05;9.27;;;;;;;5.00;80.38;97957.38;1088127;54;20037;-76
2022/04/01 01:41:45;;;;;;;11.77;9.38;;;;;;;5.04;80.33;97947.28;1088162;54;20026;-79
2022/04/01 01:42:46;;;;;;;13.30;9.50;;;;;;;4.98;80.59;97946.91;1088224;54;20031;-77
2022/04/01 01:43:51;;;;;;;10.88;8.65;;;;;;;5.00;80.50;97952.88;1088196;54;20031;-79
2022/04/01 01:44:53;;;;;;;12.10;9.85;;;;;;;4.97;80.66;97949.72;1088130;54;20784;-77
2022/04/01 01:45:57;;;;;;;9.95;8.27;;;;;;;5.03;80.56;97951.72;1088137;54;20030;-80
2022/04/01 01:46:59;;;;;;;10.25;8.00;;;;;;;5.07;80.38;97946.94;1088181;54;20026;-78
2022/04/01 01:48:03;;;;;;;10.48;8.25;;;;;;;5.11;80.23;97957.03;1088039;54;20030;-79
2022/04/01 01:49:05;;;;;;;9.73;7.88;;;;;;;5.10;80.41;97950.09;1088184;54;20026;-79
2022/04/01 01:55:22;;;;;;;9.40;7.55;;;;;;;5.11;80.31;97954.41;1088100;54;20034;-79
2022/04/01 01:56:27;;;;;;;9.32;7.53;;;;;;;5.18;79.79;97956.41;1088214;54;20042;-77
2022/04/01 01:57:32;;;;;;;8.98;6.97;;;;;;;5.24;79.86;97959.22;1088154;54;20042;-77
2022/04/01 01:58:34;;;;;;;9.05;7.40;;;;;;;5.24;79.54;97958.41;1088144;54;20026;-79
2022/04/01 01:59:39;;;;;;;10.25;7.28;;;;;;;5.28;79.46;97951.81;1088204;54;20058;-78
2022/04/01 02:00:43;;;;;;;9.77;7.82;;;;;;;5.24;79.48;97940.69;1088136;54;20026;-78
2022/04/01 02:01:46;;;;;;;9.82;7.20;;;;;;;5.07;79.74;97953.06;1088226;54;20118;-78
2022/04/01 02:02:50;;;;;;;10.70;8.23;;;;;;;4.97;79.78;97944.44;1088215;54;20041;-77
2022/04/01 02:03:52;;;;;;;10.30;7.93;;;;;;;5.00;80.07;97950.25;1088210;54;20038;-77
2022/04/01 02:04:56;;;;;;;9.75;7.60;;;;;;;4.88;80.21;97948.84;1088180;54;20030;-78
2022/04/01 02:05:57;;;;;;;9.38;7.70;;;;;;;4.90;80.38;97949.53;1090215;39;20708;-78
2022/04/01 02:07:03;;;;;;;8.48;7.07;;;;;;;4.95;80.33;97955.19;1088176;54;20330;-79
2022/04/01 02:08:06;;;;;;;8.20;6.72;;;;;;;4.95;80.16;97955.19;1088161;54;20021;-79
2022/04/01 02:09:10;;;;;;;8.82;7.30;;;;;;;4.87;80.28;97957.78;1088113;54;20038;-77
2022/04/01 02:10:12;;;;;;;9.05;7.65;;;;;;;4.93;80.09;97951.03;1088171;54;20101;-79
2022/04/01 02:11:16;;;;;;;9.35;7.57;;;;;;;4.92;80.30;97946.72;1088239;54;20045;-77
2022/04/01 02:12:21;;;;;;;8.98;7.40;;;;;;;4.91;80.17;97948.53;1088216;54;20111;-78
2022/04/01 02:13:27;;;;;;;9.95;7.68;;;;;;;4.91;80.55;97948.53;1088179;54;20019;-77
2022/04/01 02:14:30;;;;;;;9.35;7.38;;;;;;;4.92;80.12;97949.38;1088154;54;20022;-78
2022/04/01 02:15:35;;;;;;;9.32;7.72;;;;;;;4.94;80.34;97952.69;1091717;46;20030;-78
2022/04/01 02:16:37;;;;;;;9.05;7.28;;;;;;;5.02;80.16;97949.25;1088130;54;20015;-77
2022/04/01 02:17:41;;;;;;;8.85;6.80;;;;;;;5.03;79.96;97956.22;1089872;46;20014;-78
2022/04/01 02:18:43;;;;;;;9.13;6.82;;;;;;;4.99;79.86;97950.41;1088056;54;20018;-78
2022/04/01 02:19:49;;;;;;;9.20;7.45;;;;;;;4.97;80.14;97957.69;1088138;54;20018;-77
2022/04/01 02:20:50;;;;;;;7.97;6.40;;;;;;;4.94;80.14;97950.03;1088125;54;20035;-78
2022/04/01 02:21:56;;;;;;;9.25;7.70;;;;;;;4.89;80.05;97953.16;1088182;54;20031;-78
2022/04/01 02:22:58;;;;;;;8.50;7.30;;;;;;;4.88;80.13;97955.97;1088180;54;20655;-78
2022/04/01 02:24:03;;;;;;;8.95;7.28;;;;;;;4.89;80.41;97955.81;1088110;54;20015;-77
2022/04/01 02:25:07;;;;;;;8.20;6.50;;;;;;;4.91;80.41;97956.50;1090461;46;20039;-79
2022/04/01 02:26:12;;;;;;;10.98;8.38;;;;;;;4.84;80.39;97964.25;1088145;54;20074;-79
2022/04/01 02:27:14;;;;;;;9.38;7.38;;;;;;;4.83;80.24;97959.94;1088103;54;20098;-78
2022/04/01 02:28:22;;;;;;;8.48;7.18;;;;;;;4.86;80.23;97960.59;1088102;54;20658;-79
2022/04/01 02:29:24;;;;;;;10.20;7.75;;;;;;;4.79;80.37;97955.09;1088059;54;20030;-79
2022/04/01 02:30:28;;;;;;;9.82;7.55;;;;;;;4.82;80.34;97965.38;1087995;54;20041;-78
2022/04/01 02:31:30;;;;;;;9.90;7.80;;;;;;;4.81;80.61;97963.72;1088112;54;20043;-78
2022/04/01 02:32:35;;;;;;;11.02;7.65;;;;;;;4.80;80.21;97962.06;1088096;54;20018;-79
2022/04/01 02:33:37;;;;;;;8.40;6.55;;;;;;;4.93;79.93;97961.63;1088108;54;20038;-78
2022/04/01 02:34:42;;;;;;;8.32;6.80;;;;;;;4.88;80.56;97956.81;1091456;47;20030;-77
2022/04/01 02:35:43;;;;;;;9.10;7.03;;;;;;;4.90;80.33;97951.38;1088020;54;20729;-79
2022/04/01 02:36:48;;;;;;;8.27;6.65;;;;;;;4.95;80.11;97955.19;1088069;54;20027;-78
2022/04/01 02:37:52;;;;;;;8.18;6.40;;;;;;;5.05;79.91;97959.53;1088111;54;20026;-78
2022/04/01 02:38:56;;;;;;;8.27;6.95;;;;;;;5.04;79.84;97958.69;1087982;54;20029;-78
2022/04/01 02:39:58;;;;;;;8.25;6.60;;;;;;;5.12;79.51;97956.06;1088063;54;20070;-79
2022/04/01 02:41:03;;;;;;;6.80;5.32;;;;;;;5.13;79.21;97952.41;1088039;54;20065;-79
2022/04/01 02:42:05;;;;;;;7.80;5.85;;;;;;;5.19;79.30;97960.72;1088056;54;20042;-79
2022/04/01 02:43:09;;;;;;;6.68;5.43;;;;;;;5.24;78.82;97967.19;1090128;47;20034;-78
2022/04/01 02:44:14;;;;;;;8.65;6.38;;;;;;;5.13;79.07;97965.66;1088117;54;20042;-79
2022/04/01 02:45:24;;;;;;;8.40;6.47;;;;;;;5.08;78.87;97964.50;1088070;54;20034;-80
2022/04/01 02:46:25;;;;;;;;;;;;;;;4.92;78.66;97960.81;1088433;54;20026;-78
2022/04/01 02:47:29;;;;;;;7.80;6.28;;;;;;;4.92;79.18;97970.53;1088340;54;19949;-79
2022/04/01 02:48:34;;;;;;;8.13;5.82;;;;;;;5.00;79.10;97967.97;1088332;54;20030;-79
2022/04/01 02:49:36;;;;;;;7.55;5.72;;;;;;;5.06;78.73;97966.47;1089788;47;20023;-79
2022/04/01 02:50:41;;;;;;;8.85;5.97;;;;;;;5.09;78.80;97966.16;1088742;47;20025;-77
2022/04/01 02:51:45;;;;;;;7.15;5.63;;;;;;;5.06;78.51;97969.97;1088646;47;20030;-78
2022/04/01 02:52:49;;;;;;;8.18;6.18;;;;;;;5.03;78.72;97969.44;1088163;54;20861;-78
2022/04/01 02:53:50;;;;;;;8.50;6.88;;;;;;;4.87;78.44;97983.44;1088002;47;20047;-80
2022/04/01 02:54:55;;;;;;;9.65;7.82;;;;;;;4.80;78.78;97970.84;1088031;54;20057;-79
2022/04/01 02:55:57;;;;;;;9.63;7.05;;;;;;;4.71;78.96;97974.44;1087966;54;20035;-78
2022/04/01 02:57:02;;;;;;;8.00;6.68;;;;;;;4.68;79.58;97972.94;1088070;54;20074;-78
2022/04/01 02:58:05;;;;;;;8.95;6.82;;;;;;;4.61;79.46;97974.56;1090078;47;20030;-79
2022/04/01 02:59:11;;;;;;;8.30;6.60;;;;;;;4.66;79.67;97964.34;1087929;54;20038;-78
2022/04/01 03:00:21;;;;;;;9.50;7.03;;;;;;;4.68;79.70;97977.41;1087988;54;20094;-78
2022/04/01 03:01:25;;;;;;;8.45;6.63;;;;;;;4.74;79.81;97968.81;1087997;54;20030;-79
2022/04/01 03:02:29;;;;;;;8.68;6.70;;;;;;;4.77;79.51;97967.69;1088047;54;20042;-79
2022/04/01 03:03:34;;;;;;;8.48;6.90;;;;;;;4.81;79.74;97967.22;1088514;47;20081;-78
2022/04/01 03:04:36;;;;;;;9.63;7.68;;;;;;;4.87;79.39;97968.38;1088924;39;20550;-78
2022/04/01 03:05:43;;;;;;;7.85;6.20;;;;;;;4.91;79.39;97964.44;1087972;54;20026;-79
2022/04/01 03:06:44;;;;;;;9.23;6.50;;;;;;;4.99;79.16;97964.47;1087565;54;20031;-78
2022/04/01 03:07:48;;;;;;;8.43;6.78;;;;;;;4.96;79.54;97971.91;1088001;54;20030;-78
2022/04/01 03:08:50;;;;;;;8.68;6.70;;;;;;;4.91;79.40;97980.31;1087934;54;20038;-79
2022/04/01 03:09:54;;;;;;;8.88;7.00;;;;;;;4.89;79.44;97971.69;1088032;54;20082;-78
2022/04/01 03:10:58;;;;;;;8.43;6.88;;;;;;;4.89;79.78;97970.88;1087926;54;20038;-79
2022/04/01 03:12:03;;;;;;;8.65;7.32;;;;;;;4.90;79.69;97970.72;1088081;54;20050;-78
2022/04/01 03:13:07;;;;;;;8.93;7.32;;;;;;;4.81;79.87;97972.53;1088346;54;20026;-77
2022/04/01 03:14:12;;;;;;;8.10;6.82;;;;;;;4.80;79.43;97970.00;1089698;46;20030;-78
2022/04/01 03:15:17;;;;;;;7.65;6.50;;;;;;;4.80;79.69;97976.16;1088256;54;20045;-78
2022/04/01 03:16:22;;;;;;;8.52;6.85;;;;;;;4.74;79.61;97968.81;1091838;39;20547;-78
2022/04/01 03:17:23;;;;;;;8.43;7.32;;;;;;;4.72;79.62;97972.63;1088361;54;20038;-79
2022/04/01 03:18:28;;;;;;;7.85;6.45;;;;;;;4.76;79.42;97976.63;1088339;54;20031;-78
2022/04/01 03:19:29;;;;;;;9.25;7.22;;;;;;;4.77;79.81;97975.63;1088343;54;20038;-78
2022/04/01 03:20:35;;;;;;;7.57;6.28;;;;;;;4.77;79.72;97978.28;1088340;54;20035;-79
2022/04/01 03:21:38;;;;;;;8.05;6.90;;;;;;;4.77;79.37;97968.50;1088340;54;20627;-79
2022/04/01 03:22:43;;;;;;;8.32;6.72;;;;;;;4.57;79.02;97977.66;1088351;54;20658;-79
2022/04/01 03:23:44;;;;;;;7.72;6.53;;;;;;;4.47;79.35;97969.84;1088332;54;20061;-79
2022/04/01 03:24:49;;;;;;;8.32;6.53;;;;;;;4.48;79.10;97974.97;1088332;54;20064;-78
2022/04/01 03:25:53;;;;;;;7.75;6.05;;;;;;;4.39;79.25;97969.81;1088303;54;20098;-78
2022/04/01 03:26:57;;;;;;;7.88;6.65;;;;;;;4.37;79.40;97975.25;1088345;54;20150;-79
2022/04/01 03:28:01;;;;;;;7.32;5.95;;;;;;;4.40;79.27;97976.72;1088336;54;20030;-79
2022/04/01 03:29:06;;;;;;;6.93;5.50;;;;;;;4.42;79.15;97972.13;1088266;54;20087;-78
2022/04/01 03:30:09;;;;;;;6.82;5.53;;;;;;;4.49;78.81;97981.94;1088349;54;20054;-78
2022/04/01 03:31:16;;;;;;;7.03;5.63;;;;;;;4.51;78.45;97982.63;1092613;31;20689;-80
2022/04/01 03:32:18;;;;;;;7.43;5.85;;;;;;;4.43;78.63;97982.56;1088359;54;20046;-78
2022/04/01 03:33:22;;;;;;;6.95;5.40;;;;;;;4.39;78.44;97983.84;1088449;54;20046;-78
2022/04/01 03:34:24;;;;;;;6.82;5.50;;;;;;;4.44;78.76;97981.56;1088355;54;20773;-78
2022/04/01 03:35:29;;;;;;;7.30;5.65;;;;;;;4.40;78.38;97979.38;1088305;54;20030;-79
2022/04/01 03:36:34;;;;;;;7.22;5.38;;;;;;;4.36;78.55;97985.00;1088377;54;20031;-79
2022/04/01 03:37:36;;;;;;;6.93;5.50;;;;;;;4.39;78.50;97989.16;1088437;54;20030;-77
2022/04/01 03:38:41;;;;;;;6.75;5.60;;;;;;;4.31;78.07;97991.75;1088412;54;20031;-79
2022/04/01 03:39:43;;;;;;;7.00;5.25;;;;;;;4.23;77.83;97976.63;1090246;46;20065;-78
2022/04/01 03:40:51;;;;;;;6.60;5.22;;;;;;;4.17;77.85;97982.56;1088339;54;20034;-80
2022/04/01 03:41:53;;;;;;;7.13;5.50;;;;;;;4.16;78.09;97992.28;1088411;54;20050;-78
2022/04/01 03:42:58;;;;;;;7.43;5.63;;;;;;;4.09;78.26;97985.97;1088404;54;20045;-79
2022/04/01 03:44:01;;;;;;;6.60;5.00;;;;;;;4.12;78.54;97993.59;1088397;54;20025;-78
2022/04/01 03:45:06;;;;;;;7.47;5.47;;;;;;;4.16;78.44;97992.28;1088344;54;20035;-79
2022/04/01 03:46:10;;;;;;;7.18;5.35;;;;;;;4.22;78.35;97994.34;1088356;54;20058;-79
2022/04/01 03:47:25;;;;;;;7.25;5.70;;;;;;;4.24;78.60;97988.06;1088329;54;20026;-78
2022/04/01 03:48:29;;;;;;;7.07;5.60;;;;;;;4.24;78.61;97993.34;1088406;54;20066;-78
2022/04/01 03:49:35;;;;;;;6.85;5.47;;;;;;;4.21;78.67;97989.19;1088216;54;20034;-79
2022/04/01 03:50:41;;;;;;;6.78;5.25;;;;;;;4.17;78.54;97986.00;1089573;46;20054;-77
2022/04/01 03:51:50;;;;;;;7.53;6.10;;;;;;;4.13;78.57;97989.97;1091064;46;20034;-79
2022/04/01 03:53:00;;;;;;;7.70;6.10;;;;;;;4.12;78.59;97990.94;1088649;46;20038;-79
2022/04/01 03:54:06;;;;;;;7.38;5.60;;;;;;;4.13;78.60;97987.31;1088311;54;20018;-78
2022/04/01 03:55:09;;;;;;;7.55;5.90;;;;;;;4.12;78.54;97996.25;1089860;46;20023;-78
2022/04/01 03:56:15;;;;;;;7.43;5.80;;;;;;;4.10;78.93;97995.56;1088234;54;20038;-78
2022/04/01 03:57:20;;;;;;;8.25;6.00;;;;;;;4.10;78.70;97992.91;1088358;54;20030;-79
2022/04/01 03:58:30;;;;;;;7.63;5.88;;;;;;;4.02;78.67;97991.03;1088509;46;20021;-79
2022/04/01 03:59:40;;;;;;;7.82;5.55;;;;;;;4.07;79.01;97990.56;1088282;54;20019;-78
2022/04/01 04:00:44;;;;;;;;;;;;;;;4.10;79.32;97992.91;1088510;47;20022;-79
2022/04/01 04:01:46;;;;;;;6.88;5.10;;;;;;;4.18;79.02;97990.31;1088338;54;19934;-78
2022/04/01 04:02:53;;;;;;;7.00;5.50;;;;;;;4.19;78.76;97986.69;1090455;46;20018;-78
2022/04/01 04:03:56;;;;;;;8.35;6.57;;;;;;;4.13;78.98;97992.63;1088355;54;20030;-78
2022/04/01 04:05:02;;;;;;;8.38;5.90;;;;;;;4.20;78.89;97996.28;1088356;54;20022;-79
2022/04/01 04:06:09;;;;;;;6.68;5.15;;;;;;;4.28;78.49;97992.03;1088273;54;20042;-79
2022/04/01 04:07:11;;;;;;;7.18;5.70;;;;;;;4.27;78.73;98000.97;1088084;54;20041;-79
2022/04/01 04:08:15;;;;;;;7.50;6.00;;;;;;;4.19;79.01;97993.81;1088715;39;20239;-78
2022/04/01 04:09:21;;;;;;;8.98;7.20;;;;;;;4.18;79.19;97992.97;1088332;54;20034;-79
2022/04/01 04:10:27;;;;;;;8.18;6.25;;;;;;;4.18;79.39;97994.78;1088228;54;20022;-78
2022/04/01 04:11:32;;;;;;;7.57;5.97;;;;;;;4.21;79.52;97997.13;1088340;54;20019;-80
2022/04/01 04:12:35;;;;;;;8.25;6.43;;;;;;;4.20;79.44;97993.66;1089465;46;20030;-79
2022/04/01 04:13:41;;;;;;;8.70;6.43;;;;;;;4.18;79.36;97995.63;1088264;54;20049;-78
2022/04/01 04:14:43;;;;;;;8.55;6.68;;;;;;;4.22;79.32;97996.97;1088278;54;20066;-79
2022/04/01 04:16:04;;;;;;;9.38;6.63;;;;;;;4.20;79.31;97992.84;1089714;39;20602;-78
2022/04/01 04:17:11;;;;;;;8.07;6.28;;;;;;;4.18;79.60;97998.25;1088322;54;20038;-79
2022/04/01 04:18:20;;;;;;;8.05;6.63;;;;;;;4.22;79.37;97999.63;1088334;54;20034;-79
2022/04/01 04:19:30;;;;;;;8.55;6.95;;;;;;;4.25;79.35;98001.13;1088266;54;20062;-79
2022/04/01 04:20:34;;;;;;;;;;;;;;;4.25;79.68;98005.59;1088299;54;20023;-78
2022/04/01 04:21:44;;;;;;;8.13;6.20;;;;;;;4.30;79.58;98004.13;1088358;54;19943;-80
2022/04/01 04:22:57;;;;;;;8.82;6.40;;;;;;;4.33;79.05;97998.53;1088329;54;20042;-78
2022/04/01 04:24:02;;;;;;;7.53;6.05;;;;;;;4.31;79.34;97995.22;1089048;46;20046;-79
2022/04/01 04:25:10;;;;;;;7.88;6.25;;;;;;;4.29;78.84;98006.94;1088296;54;20038;-78
2022/04/01 04:26:17;;;;;;;8.68;7.05;;;;;;;4.28;79.02;98008.75;1088203;54;20034;-78
2022/04/01 04:27:25;;;;;;;9.10;7.22;;;;;;;4.19;79.02;98004.41;1088283;54;20035;-78
2022/04/01 04:28:29;;;;;;;8.52;6.85;;;;;;;4.16;79.00;98008.16;1088294;54;20019;-77
2022/04/01 04:29:36;;;;;;;9.07;7.32;;;;;;;4.11;79.32;98014.91;1088293;54;20071;-78
2022/04/01 04:30:49;;;;;;;8.57;6.78;;;;;;;4.08;79.48;98004.63;1088147;54;20038;-77
2022/04/01 04:32:03;;;;;;;8.90;7.30;;;;;;;4.07;79.58;98014.38;1088300;54;20030;-80
2022/04/01 04:33:06;;;;;;;8.50;7.03;;;;;;;4.15;79.59;98016.25;1088269;54;20018;-78
2022/04/01 04:34:14;;;;;;;8.68;6.78;;;;;;;4.21;79.56;98013.84;1088251;54;20081;-79
2022/04/01 04:35:20;;;;;;;8.30;6.70;;;;;;;4.20;79.60;98014.00;1088247;54;20035;-78
2022/04/01 04:36:36;;;;;;;9.48;7.80;;;;;;;4.06;79.05;98015.38;1088266;54;20037;-76
2022/04/01 04:37:44;;;;;;;9.00;7.22;;;;;;;4.09;79.42;98011.59;1088248;54;20038;-78
2022/04/01 04:38:49;;;;;;;9.60;7.55;;;;;;;4.11;79.58;98023.66;1088324;54;20018;-79
2022/04/01 04:39:52;;;;;;;8.43;6.78;;;;;;;4.16;79.34;98013.44;1088234;54;20039;-77
2022/04/01 04:40:57;;;;;;;8.43;6.47;;;;;;;4.16;79.42;98009.97;1088130;54;20094;-78
2022/04/01 04:42:01;;;;;;;8.50;6.80;;;;;;;4.24;79.23;98020.63;1088266;54;20023;-79
2022/04/01 04:43:05;;;;;;;8.15;6.57;;;;;;;4.30;79.30;98009.41;1088205;54;20030;-78
2022/04/01 04:44:13;;;;;;;8.38;6.93;;;;;;;4.25;79.04;98011.72;1088217;54;20027;-77
2022/04/01 04:45:15;;;;;;;9.13;7.43;;;;;;;4.16;79.37;98015.28;1088221;54;20741;-78
2022/04/01 04:46:21;;;;;;;8.95;7.20;;;;;;;4.20;79.08;98022.75;1088155;54;20670;-78
2022/04/01 04:47:26;;;;;;;8.90;6.88;;;;;;;4.19;78.97;98015.78;1088248;54;20034;-78
2022/04/01 04:48:30;;;;;;;8.20;6.72;;;;;;;4.20;79.03;98019.28;1088229;54;20038;-78
2022/04/01 04:49:36;;;;;;;8.10;6.53;;;;;;;4.18;79.02;98015.97;1088221;54;20046;-78
2022/04/01 04:50:40;;;;;;;8.98;7.38;;;;;;;4.20;79.46;98024.56;1088100;54;20034;-78
2022/04/01 04:51:42;;;;;;;12.65;7.20;;;;;;;4.17;79.68;98015.09;1088169;54;20053;-78
2022/04/01 04:52:50;;;;;;;9.55;7.35;;;;;;;4.13;79.44;98028.78;1088215;54;20791;-79
2022/04/01 04:53:52;;;;;;;8.02;6.57;;;;;;;4.17;79.49;98030.97;1088254;54;20038;-78
2022/04/01 04:54:58;;;;;;;8.23;6.53;;;;;;;4.22;79.23;98022.59;1088169;54;20040;-78
2022/04/01 04:56:01;;;;;;;8.70;6.93;;;;;;;4.25;79.34;98024.13;1088207;54;20039;-77
2022/04/01 04:57:06;;;;;;;8.85;6.47;;;;;;;4.32;79.13;98028.63;1088204;54;20031;-78
2022/04/01 04:58:09;;;;;;;9.00;7.18;;;;;;;4.26;78.91;98029.25;1088233;54;20030;-78
2022/04/01 04:59:14;;;;;;;9.10;7.55;;;;;;;4.17;79.01;98028.34;1088374;46;20611;-78
2022/04/01 05:00:19;;;;;;;9.25;6.85;;;;;;;4.18;79.39;98034.47;1088222;54;20035;-77
2022/04/01 05:01:38;;;;;;;10.68;8.52;;;;;;;4.18;79.19;98034.47;1088160;54;20026;-78
2022/04/01 05:02:51;;;;;;;8.48;7.03;;;;;;;4.19;79.38;98029.03;1088246;54;20666;-77
2022/04/01 05:04:25;;;;;;;8.45;7.05;;;;;;;4.21;79.27;98032.34;1088229;54;20035;-79
2022/04/01 05:05:36;;;;;;;9.00;7.00;;;;;;;4.20;79.04;98030.69;1087784;54;20126;-78
2022/04/01 05:06:47;;;;;;;9.07;7.22;;;;;;;4.31;78.86;98034.06;1087905;54;20034;-79
2022/04/01 05:08:02;;;;;;;9.23;6.43;;;;;;;4.40;78.86;98029.66;1087459;54;20038;-79
2022/04/01 05:09:13;;;;;;;9.05;7.18;;;;;;;4.40;78.47;98037.59;1087867;54;20031;-78
2022/04/01 05:10:16;;;;;;;9.93;7.85;;;;;;;4.34;78.78;98041.72;1087992;54;20038;-77
2022/04/01 05:11:36;;;;;;;11.43;8.85;;;;;;;4.26;78.59;98041.63;1087785;54;20031;-78
2022/04/01 05:12:50;;;;;;;9.10;7.03;;;;;;;4.21;79.00;98042.09;1087927;54;20027;-79
2022/04/01 05:14:01;;;;;;;9.43;7.22;;;;;;;4.24;79.38;98035.69;1087991;54;20015;-77
2022/04/01 05:15:05;;;;;;;9.27;6.80;;;;;;;4.27;79.06;98038.84;1087913;54;20061;-78
2022/04/01 05:16:18;;;;;;;8.98;7.35;;;;;;;4.30;79.39;98050.91;1090235;46;20041;-77
2022/04/01 05:17:25;;;;;;;8.52;7.03;;;;;;;4.17;78.58;98046.84;1087993;54;20030;-77
2022/04/01 05:18:42;;;;;;;9.07;7.30;;;;;;;4.24;79.07;98047.06;1087969;54;20058;-79